Terminal Aerodrome Forecast
Issued by NWS

Home | Current Version | Previous Version | Text Only | Print | Product List | Glossary On
Versions: 1 2 3 4 5 6 7 8 9 10 11 12 13 14 15 16 17 18 19
000
FTUS45 KLKN 240019 RRA
TAFEKO
TAF
KEKO 240019Z 2400/2424 26009KT P6SM SCT060
     FM240200 VRB04KT P6SM SCT200
     FM242000 19012G22KT P6SM SCT080 BKN150=

USA.gov is the U.S. government's official web portal to all federal, state and local government web resources and services.